sensor_id;sensor_type;location;lat;lon;timestamp;pressure;altitude;pressure_sealevel;temperature;humidity
54455;BME280;40364;52.270;10.546;2023-06-04T00:01:31;101147.56;;;24.30;27.81
54455;BME280;40364;52.270;10.546;2023-06-04T00:03:58;101148.88;;;24.18;27.29
54455;BME280;40364;52.270;10.546;2023-06-04T00:06:24;101145.56;;;24.27;27.04
54455;BME280;40364;52.270;10.546;2023-06-04T00:08:51;101148.06;;;23.80;27.98
54455;BME280;40364;52.270;10.546;2023-06-04T00:11:17;101143.16;;;23.84;28.29
54455;BME280;40364;52.270;10.546;2023-06-04T00:13:45;101140.06;;;24.09;28.20
54455;BME280;40364;52.270;10.546;2023-06-04T00:16:11;101142.09;;;24.08;28.40
54455;BME280;40364;52.270;10.546;2023-06-04T00:18:39;101143.50;;;23.90;28.24
54455;BME280;40364;52.270;10.546;2023-06-04T00:21:06;101154.28;;;23.05;29.20
54455;BME280;40364;52.270;10.546;2023-06-04T00:23:33;101148.59;;;23.64;29.23
54455;BME280;40364;52.270;10.546;2023-06-04T00:25:59;101145.88;;;23.46;29.12
54455;BME280;40364;52.270;10.546;2023-06-04T00:28:26;101149.28;;;23.24;28.96
54455;BME280;40364;52.270;10.546;2023-06-04T00:30:53;101155.44;;;23.74;28.45
54455;BME280;40364;52.270;10.546;2023-06-04T00:33:19;101153.75;;;23.80;28.69
54455;BME280;40364;52.270;10.546;2023-06-04T00:35:48;101155.13;;;24.06;28.38
54455;BME280;40364;52.270;10.546;2023-06-04T00:38:14;101155.06;;;23.68;28.62
54455;BME280;40364;52.270;10.546;2023-06-04T00:40:41;101152.22;;;23.68;28.21
54455;BME280;40364;52.270;10.546;2023-06-04T00:43:07;101150.06;;;23.31;28.62
54455;BME280;40364;52.270;10.546;2023-06-04T00:45:35;101144.41;;;23.24;28.96
54455;BME280;40364;52.270;10.546;2023-06-04T00:48:02;101152.16;;;23.79;27.96
54455;BME280;40364;52.270;10.546;2023-06-04T00:50:29;101151.38;;;23.20;28.48
54455;BME280;40364;52.270;10.546;2023-06-04T00:52:59;101144.41;;;23.24;28.44
54455;BME280;40364;52.270;10.546;2023-06-04T00:55:26;101147.94;;;23.46;28.09
54455;BME280;40364;52.270;10.546;2023-06-04T00:57:53;101145.22;;;24.17;27.34
54455;BME280;40364;52.270;10.546;2023-06-04T01:00:19;101156.94;;;24.30;27.23
54455;BME280;40364;52.270;10.546;2023-06-04T01:02:47;101151.13;;;24.41;27.03
54455;BME280;40364;52.270;10.546;2023-06-04T01:05:19;101143.28;;;24.11;27.04
54455;BME280;40364;52.270;10.546;2023-06-04T01:07:48;101147.75;;;24.12;26.89
54455;BME280;40364;52.270;10.546;2023-06-04T01:10:16;101146.84;;;24.18;26.88
54455;BME280;40364;52.270;10.546;2023-06-04T01:12:43;101151.59;;;23.43;27.74
54455;BME280;40364;52.270;10.546;2023-06-04T01:15:11;101146.16;;;23.66;27.88
54455;BME280;40364;52.270;10.546;2023-06-04T01:17:40;101156.81;;;24.00;27.38
54455;BME280;40364;52.270;10.546;2023-06-04T01:20:20;101136.81;;;24.07;27.14
54455;BME280;40364;52.270;10.546;2023-06-04T01:23:00;101139.28;;;24.05;26.98
54455;BME280;40364;52.270;10.546;2023-06-04T01:25:34;101140.44;;;24.11;26.99
54455;BME280;40364;52.270;10.546;2023-06-04T01:28:05;101134.94;;;23.93;26.83
54455;BME280;40364;52.270;10.546;2023-06-04T01:30:34;101140.13;;;24.02;26.89
54455;BME280;40364;52.270;10.546;2023-06-04T01:33:02;101133.22;;;24.03;26.93
54455;BME280;40364;52.270;10.546;2023-06-04T01:35:29;101134.19;;;23.85;27.33
54455;BME280;40364;52.270;10.546;2023-06-04T01:37:57;101127.88;;;23.64;27.56
54455;BME280;40364;52.270;10.546;2023-06-04T01:40:24;101127.47;;;23.65;27.69
54455;BME280;40364;52.270;10.546;2023-06-04T01:42:53;101130.09;;;23.87;27.38
54455;BME280;40364;52.270;10.546;2023-06-04T01:45:20;101126.50;;;24.20;26.95
54455;BME280;40364;52.270;10.546;2023-06-04T01:47:47;101138.72;;;23.24;27.67
54455;BME280;40364;52.270;10.546;2023-06-04T01:50:15;101132.75;;;23.67;27.28
54455;BME280;40364;52.270;10.546;2023-06-04T01:52:42;101127.88;;;23.67;27.59
54455;BME280;40364;52.270;10.546;2023-06-04T01:55:10;101132.19;;;23.82;27.41
54455;BME280;40364;52.270;10.546;2023-06-04T01:57:38;101132.50;;;23.43;27.81
54455;BME280;40364;52.270;10.546;2023-06-04T02:00:09;101125.72;;;23.82;27.43
54455;BME280;40364;52.270;10.546;2023-06-04T02:02:37;101128.69;;;23.64;27.61
54455;BME280;40364;52.270;10.546;2023-06-04T02:05:05;101131.72;;;23.88;27.07
54455;BME280;40364;52.270;10.546;2023-06-04T02:07:33;101128.97;;;23.25;27.88
54455;BME280;40364;52.270;10.546;2023-06-04T02:09:59;101128.06;;;23.42;28.00
54455;BME280;40364;52.270;10.546;2023-06-04T02:12:26;101129.63;;;23.54;27.63
54455;BME280;40364;52.270;10.546;2023-06-04T02:14:53;101125.28;;;23.32;28.22
54455;BME280;40364;52.270;10.546;2023-06-04T02:17:21;101128.88;;;23.39;28.22
54455;BME280;40364;52.270;10.546;2023-06-04T02:19:47;101127.88;;;23.67;27.65
54455;BME280;40364;52.270;10.546;2023-06-04T02:22:15;101132.19;;;23.31;27.94
54455;BME280;40364;52.270;10.546;2023-06-04T02:24:42;101126.47;;;23.34;28.13
54455;BME280;40364;52.270;10.546;2023-06-04T02:27:09;101126.41;;;23.45;28.05
54455;BME280;40364;52.270;10.546;2023-06-04T02:29:36;101127.25;;;22.83;28.70
54455;BME280;40364;52.270;10.546;2023-06-04T02:32:03;101129.75;;;23.29;28.57
54455;BME280;40364;52.270;10.546;2023-06-04T02:34:31;101124.72;;;23.55;28.30
54455;BME280;40364;52.270;10.546;2023-06-04T02:36:59;101122.25;;;23.57;28.07
54455;BME280;40364;52.270;10.546;2023-06-04T02:39:26;101123.38;;;23.14;28.56
54455;BME280;40364;52.270;10.546;2023-06-04T02:41:52;101118.50;;;23.15;28.58
54455;BME280;40364;52.270;10.546;2023-06-04T02:44:19;101126.00;;;22.88;29.21
54455;BME280;40364;52.270;10.546;2023-06-04T02:46:46;101122.75;;;22.89;29.09
54455;BME280;40364;52.270;10.546;2023-06-04T02:49:13;101125.47;;;23.03;29.08
54455;BME280;40364;52.270;10.546;2023-06-04T02:51:41;101134.78;;;23.07;29.47
54455;BME280;40364;52.270;10.546;2023-06-04T02:54:08;101127.34;;;23.24;29.32
54455;BME280;40364;52.270;10.546;2023-06-04T02:56:36;101131.66;;;22.91;29.85
54455;BME280;40364;52.270;10.546;2023-06-04T02:59:03;101132.31;;;23.16;29.45
54455;BME280;40364;52.270;10.546;2023-06-04T03:01:30;101134.25;;;23.27;29.47
54455;BME280;40364;52.270;10.546;2023-06-04T03:03:57;101131.88;;;23.22;29.38
54455;BME280;40364;52.270;10.546;2023-06-04T03:06:24;101128.16;;;23.28;29.64
54455;BME280;40364;52.270;10.546;2023-06-04T03:08:52;101130.56;;;23.30;29.73
54455;BME280;40364;52.270;10.546;2023-06-04T03:11:19;101134.41;;;23.05;29.83
54455;BME280;40364;52.270;10.546;2023-06-04T03:13:46;101130.97;;;23.32;29.34
54455;BME280;40364;52.270;10.546;2023-06-04T03:16:13;101131.09;;;23.17;29.60
54455;BME280;40364;52.270;10.546;2023-06-04T03:18:40;101136.25;;;23.30;29.53
54455;BME280;40364;52.270;10.546;2023-06-04T03:21:08;101131.53;;;23.09;29.92
54455;BME280;40364;52.270;10.546;2023-06-04T03:23:37;101135.25;;;22.95;30.37
54455;BME280;40364;52.270;10.546;2023-06-04T03:26:05;101141.41;;;22.90;30.27
54455;BME280;40364;52.270;10.546;2023-06-04T03:28:33;101129.28;;;22.79;30.45
54455;BME280;40364;52.270;10.546;2023-06-04T03:31:00;101125.97;;;22.91;30.50
54455;BME280;40364;52.270;10.546;2023-06-04T03:33:27;101134.44;;;22.98;30.20
54455;BME280;40364;52.270;10.546;2023-06-04T03:35:54;101124.84;;;22.64;30.70
54455;BME280;40364;52.270;10.546;2023-06-04T03:38:23;101138.72;;;22.55;30.76
54455;BME280;40364;52.270;10.546;2023-06-04T03:40:49;101134.13;;;22.75;30.62
54455;BME280;40364;52.270;10.546;2023-06-04T03:43:19;101140.13;;;22.98;30.55
54455;BME280;40364;52.270;10.546;2023-06-04T03:45:46;101135.84;;;22.62;31.00
54455;BME280;40364;52.270;10.546;2023-06-04T03:48:13;101138.19;;;22.81;30.92
54455;BME280;40364;52.270;10.546;2023-06-04T03:50:40;101136.66;;;22.62;31.17
54455;BME280;40364;52.270;10.546;2023-06-04T03:53:06;101139.94;;;22.46;31.78
54455;BME280;40364;52.270;10.546;2023-06-04T03:55:33;101142.13;;;23.01;30.96
54455;BME280;40364;52.270;10.546;2023-06-04T03:58:00;101137.47;;;22.59;31.48
54455;BME280;40364;52.270;10.546;2023-06-04T04:00:28;101145.41;;;22.96;31.22
54455;BME280;40364;52.270;10.546;2023-06-04T04:02:55;101139.91;;;22.61;31.76
54455;BME280;40364;52.270;10.546;2023-06-04T04:05:22;101140.66;;;22.65;31.90
54455;BME280;40364;52.270;10.546;2023-06-04T04:07:49;101145.81;;;22.95;31.27
54455;BME280;40364;52.270;10.546;2023-06-04T04:10:15;101139.44;;;22.66;31.74
54455;BME280;40364;52.270;10.546;2023-06-04T04:12:42;101148.75;;;22.73;31.88
54455;BME280;40364;52.270;10.546;2023-06-04T04:15:09;101146.13;;;23.11;31.62
54455;BME280;40364;52.270;10.546;2023-06-04T04:17:37;101149.75;;;23.74;30.75
54455;BME280;40364;52.270;10.546;2023-06-04T04:20:04;101157.59;;;23.56;30.86
54455;BME280;40364;52.270;10.546;2023-06-04T04:22:31;101148.25;;;23.55;30.90
54455;BME280;40364;52.270;10.546;2023-06-04T04:24:58;101157.31;;;23.88;30.58
54455;BME280;40364;52.270;10.546;2023-06-04T04:27:26;101157.81;;;23.82;30.28
54455;BME280;40364;52.270;10.546;2023-06-04T04:29:55;101161.94;;;23.15;31.19
54455;BME280;40364;52.270;10.546;2023-06-04T04:32:25;101149.41;;;23.09;31.46
54455;BME280;40364;52.270;10.546;2023-06-04T04:34:54;101149.25;;;23.31;30.69
54455;BME280;40364;52.270;10.546;2023-06-04T04:37:21;101159.91;;;23.20;30.98
54455;BME280;40364;52.270;10.546;2023-06-04T04:39:47;101150.53;;;23.23;31.34
54455;BME280;40364;52.270;10.546;2023-06-04T04:42:17;101160.75;;;23.09;31.45
54455;BME280;40364;52.270;10.546;2023-06-04T04:44:43;101153.59;;;23.53;30.84
54455;BME280;40364;52.270;10.546;2023-06-04T04:47:12;101154.63;;;23.73;30.63
54455;BME280;40364;52.270;10.546;2023-06-04T04:49:39;101150.28;;;23.58;30.96
54455;BME280;40364;52.270;10.546;2023-06-04T04:52:07;101158.63;;;23.83;31.02
54455;BME280;40364;52.270;10.546;2023-06-04T04:54:34;101160.03;;;23.57;30.35
54455;BME280;40364;52.270;10.546;2023-06-04T04:57:01;101158.38;;;23.63;29.53
54455;BME280;40364;52.270;10.546;2023-06-04T04:59:28;101163.97;;;23.74;29.94
54455;BME280;40364;52.270;10.546;2023-06-04T05:01:54;101164.63;;;23.89;29.49
54455;BME280;40364;52.270;10.546;2023-06-04T05:04:21;101165.13;;;23.80;29.57
54455;BME280;40364;52.270;10.546;2023-06-04T05:06:47;101157.03;;;23.78;30.01
54455;BME280;40364;52.270;10.546;2023-06-04T05:09:15;101161.47;;;24.58;29.62
54455;BME280;40364;52.270;10.546;2023-06-04T05:11:42;101165.13;;;24.21;29.92
54455;BME280;40364;52.270;10.546;2023-06-04T05:14:09;101164.59;;;24.37;29.86
54455;BME280;40364;52.270;10.546;2023-06-04T05:16:36;101160.19;;;24.29;29.90
54455;BME280;40364;52.270;10.546;2023-06-04T05:19:03;101167.44;;;24.37;29.89
54455;BME280;40364;52.270;10.546;2023-06-04T05:21:30;101166.44;;;24.13;30.35
54455;BME280;40364;52.270;10.546;2023-06-04T05:23:56;101167.09;;;24.31;30.32
54455;BME280;40364;52.270;10.546;2023-06-04T05:26:24;101169.66;;;24.87;29.57
54455;BME280;40364;52.270;10.546;2023-06-04T05:28:53;101173.22;;;24.94;28.77
54455;BME280;40364;52.270;10.546;2023-06-04T05:31:21;101168.09;;;24.82;28.81
54455;BME280;40364;52.270;10.546;2023-06-04T05:33:51;101172.81;;;24.62;29.14
54455;BME280;40364;52.270;10.546;2023-06-04T05:36:19;101174.44;;;24.93;28.87
54455;BME280;40364;52.270;10.546;2023-06-04T05:38:47;101171.00;;;25.09;28.68
54455;BME280;40364;52.270;10.546;2023-06-04T05:41:22;101175.41;;;24.83;29.14
54455;BME280;40364;52.270;10.546;2023-06-04T05:43:50;101173.31;;;25.17;28.82
54455;BME280;40364;52.270;10.546;2023-06-04T05:46:17;101174.44;;;24.97;29.53
54455;BME280;40364;52.270;10.546;2023-06-04T05:48:43;101181.50;;;25.15;28.20
54455;BME280;40364;52.270;10.546;2023-06-04T05:51:12;101175.69;;;25.23;28.38
54455;BME280;40364;52.270;10.546;2023-06-04T05:53:39;101180.09;;;25.00;28.36
54455;BME280;40364;52.270;10.546;2023-06-04T05:56:05;101184.41;;;24.78;28.29
54455;BME280;40364;52.270;10.546;2023-06-04T05:58:33;101188.56;;;25.34;27.33
54455;BME280;40364;52.270;10.546;2023-06-04T06:01:01;101182.91;;;25.31;27.92
54455;BME280;40364;52.270;10.546;2023-06-04T06:03:28;101189.16;;;24.88;27.90
54455;BME280;40364;52.270;10.546;2023-06-04T06:05:55;101173.59;;;25.27;27.73
54455;BME280;40364;52.270;10.546;2023-06-04T06:08:25;101178.13;;;25.24;27.96
54455;BME280;40364;52.270;10.546;2023-06-04T06:10:51;101183.69;;;25.85;27.19
54455;BME280;40364;52.270;10.546;2023-06-04T06:13:18;101186.25;;;25.26;27.47
54455;BME280;40364;52.270;10.546;2023-06-04T06:18:14;101185.78;;;26.04;26.48
54455;BME280;40364;52.270;10.546;2023-06-04T06:20:41;101189.44;;;25.81;26.16
54455;BME280;40364;52.270;10.546;2023-06-04T06:23:08;101182.66;;;26.42;25.83
54455;BME280;40364;52.270;10.546;2023-06-04T06:25:34;101198.19;;;26.61;25.65
54455;BME280;40364;52.270;10.546;2023-06-04T06:28:01;101194.81;;;26.46;25.88
54455;BME280;40364;52.270;10.546;2023-06-04T06:30:28;101189.47;;;26.68;25.78
54455;BME280;40364;52.270;10.546;2023-06-04T06:32:54;101189.41;;;26.71;25.84
54455;BME280;40364;52.270;10.546;2023-06-04T06:35:22;101189.19;;;27.54;25.13
54455;BME280;40364;52.270;10.546;2023-06-04T06:37:49;101190.13;;;26.75;25.39
54455;BME280;40364;52.270;10.546;2023-06-04T06:40:16;101195.91;;;27.11;25.13
54455;BME280;40364;52.270;10.546;2023-06-04T06:42:47;101205.22;;;26.76;24.73
54455;BME280;40364;52.270;10.546;2023-06-04T06:45:13;101202.75;;;27.34;24.52
54455;BME280;40364;52.270;10.546;2023-06-04T06:47:40;101194.81;;;27.41;24.62
54455;BME280;40364;52.270;10.546;2023-06-04T06:50:07;101210.13;;;28.16;24.15
54455;BME280;40364;52.270;10.546;2023-06-04T06:52:58;101211.59;;;27.92;24.35
54455;BME280;40364;52.270;10.546;2023-06-04T06:55:31;101198.88;;;27.93;24.44
54455;BME280;40364;52.270;10.546;2023-06-04T06:57:58;101186.88;;;27.49;23.85
54455;BME280;40364;52.270;10.546;2023-06-04T07:00:25;101210.13;;;28.16;24.02
54455;BME280;40364;52.270;10.546;2023-06-04T07:02:52;101213.59;;;27.42;24.30
54455;BME280;40364;52.270;10.546;2023-06-04T07:05:19;101220.09;;;27.95;24.23
54455;BME280;40364;52.270;10.546;2023-06-04T07:07:47;101214.44;;;28.40;23.31
54455;BME280;40364;52.270;10.546;2023-06-04T07:10:13;101212.25;;;28.44;23.35
54455;BME280;40364;52.270;10.546;2023-06-04T07:12:40;101213.47;;;28.60;23.00
54455;BME280;40364;52.270;10.546;2023-06-04T07:15:07;101215.00;;;28.48;23.67
54455;BME280;40364;52.270;10.546;2023-06-04T07:17:34;101220.72;;;28.77;23.40
54455;BME280;40364;52.270;10.546;2023-06-04T07:20:01;101218.16;;;28.82;22.93
54455;BME280;40364;52.270;10.546;2023-06-04T07:22:29;101211.59;;;29.24;22.04
54455;BME280;40364;52.270;10.546;2023-06-04T07:24:57;101211.03;;;28.29;22.14
54455;BME280;40364;52.270;10.546;2023-06-04T07:27:24;101194.94;;;28.03;22.08
54455;BME280;40364;52.270;10.546;2023-06-04T07:29:51;101202.81;;;27.66;22.57
54455;BME280;40364;52.270;10.546;2023-06-04T07:32:18;101215.44;;;28.63;21.52
54455;BME280;40364;52.270;10.546;2023-06-04T07:34:45;101204.91;;;28.43;21.34
54455;BME280;40364;52.270;10.546;2023-06-04T07:37:11;101208.22;;;29.00;21.54
54455;BME280;40364;52.270;10.546;2023-06-04T07:39:39;101200.13;;;29.24;20.82
54455;BME280;40364;52.270;10.546;2023-06-04T07:42:07;101206.91;;;29.68;20.65
54455;BME280;40364;52.270;10.546;2023-06-04T07:44:36;101199.75;;;29.09;20.77
54455;BME280;40364;52.270;10.546;2023-06-04T07:47:03;101205.19;;;29.45;20.90
54455;BME280;40364;52.270;10.546;2023-06-04T07:49:30;101210.53;;;28.76;22.09
54455;BME280;40364;52.270;10.546;2023-06-04T07:51:56;101211.31;;;28.93;21.95
54455;BME280;40364;52.270;10.546;2023-06-04T07:54:24;101211.97;;;29.64;21.59
54455;BME280;40364;52.270;10.546;2023-06-04T07:56:51;101211.03;;;29.41;21.67
54455;BME280;40364;52.270;10.546;2023-06-04T07:59:22;101211.47;;;30.03;21.42
54455;BME280;40364;52.270;10.546;2023-06-04T08:01:49;101211.38;;;29.31;21.53
54455;BME280;40364;52.270;10.546;2023-06-04T08:04:16;101215.50;;;29.30;19.75
54455;BME280;40364;52.270;10.546;2023-06-04T08:06:43;101217.81;;;29.35;19.91
54455;BME280;40364;52.270;10.546;2023-06-04T08:09:10;101209.88;;;29.26;20.45
54455;BME280;40364;52.270;10.546;2023-06-04T08:11:37;101217.63;;;29.00;20.11
54455;BME280;40364;52.270;10.546;2023-06-04T08:14:03;101216.56;;;29.61;20.63
54455;BME280;40364;52.270;10.546;2023-06-04T08:16:32;101227.31;;;28.32;21.48
54455;BME280;40364;52.270;10.546;2023-06-04T08:18:58;101219.09;;;28.63;21.34
54455;BME280;40364;52.270;10.546;2023-06-04T08:21:25;101218.03;;;29.28;21.18
54455;BME280;40364;52.270;10.546;2023-06-04T08:23:55;101217.00;;;29.85;20.60
54455;BME280;40364;52.270;10.546;2023-06-04T08:26:22;101221.13;;;29.33;20.31
54455;BME280;40364;52.270;10.546;2023-06-04T08:28:49;101228.97;;;28.75;20.01
54455;BME280;40364;52.270;10.546;2023-06-04T08:31:16;101224.56;;;28.58;20.49
54455;BME280;40364;52.270;10.546;2023-06-04T08:33:44;101223.84;;;28.08;21.24
54455;BME280;40364;52.270;10.546;2023-06-04T08:36:11;101219.44;;;29.48;19.65
54455;BME280;40364;52.270;10.546;2023-06-04T08:38:38;101212.50;;;30.09;19.29
54455;BME280;40364;52.270;10.546;2023-06-04T08:41:11;101225.56;;;30.58;18.28
54455;BME280;40364;52.270;10.546;2023-06-04T08:43:39;101226.91;;;30.31;18.95
54455;BME280;40364;52.270;10.546;2023-06-04T08:46:08;101231.09;;;28.29;20.28
54455;BME280;40364;52.270;10.546;2023-06-04T08:48:36;101225.28;;;29.45;20.20
54455;BME280;40364;52.270;10.546;2023-06-04T08:51:07;101232.28;;;29.44;19.57
54455;BME280;40364;52.270;10.546;2023-06-04T08:53:35;101236.44;;;30.41;18.99
54455;BME280;40364;52.270;10.546;2023-06-04T08:56:02;101221.63;;;29.57;19.01
54455;BME280;40364;52.270;10.546;2023-06-04T08:58:30;101216.28;;;29.17;19.58
54455;BME280;40364;52.270;10.546;2023-06-04T09:00:57;101225.16;;;29.87;19.59
54455;BME280;40364;52.270;10.546;2023-06-04T09:03:25;101228.25;;;29.67;19.39
54455;BME280;40364;52.270;10.546;2023-06-04T09:05:52;101223.78;;;29.40;19.40
54455;BME280;40364;52.270;10.546;2023-06-04T09:08:22;101219.56;;;29.58;19.76
54455;BME280;40364;52.270;10.546;2023-06-04T09:10:50;101223.63;;;30.98;19.22
54455;BME280;40364;52.270;10.546;2023-06-04T09:13:21;101233.59;;;31.06;17.98
54455;BME280;40364;52.270;10.546;2023-06-04T09:15:58;101217.69;;;30.36;18.35
54455;BME280;40364;52.270;10.546;2023-06-04T09:18:25;101231.81;;;29.33;18.92
54455;BME280;40364;52.270;10.546;2023-06-04T09:21:00;101229.66;;;29.62;18.34
54455;BME280;40364;52.270;10.546;2023-06-04T09:23:28;101228.69;;;30.85;17.45
54455;BME280;40364;52.270;10.546;2023-06-04T09:26:10;101228.59;;;30.07;18.27
54455;BME280;40364;52.270;10.546;2023-06-04T09:28:39;101225.25;;;31.21;17.73
54455;BME280;40364;52.270;10.546;2023-06-04T09:31:08;101210.53;;;31.19;17.85
54455;BME280;40364;52.270;10.546;2023-06-04T09:33:41;101223.88;;;31.35;18.80
54455;BME280;40364;52.270;10.546;2023-06-04T09:36:08;101227.84;;;31.06;18.56
54455;BME280;40364;52.270;10.546;2023-06-04T09:38:36;101230.09;;;30.46;18.23
54455;BME280;40364;52.270;10.546;2023-06-04T09:41:03;101228.00;;;30.81;18.58
54455;BME280;40364;52.270;10.546;2023-06-04T09:43:31;101225.09;;;31.25;17.72
54455;BME280;40364;52.270;10.546;2023-06-04T09:46:08;101227.50;;;31.57;17.59
54455;BME280;40364;52.270;10.546;2023-06-04T09:48:36;101221.44;;;30.24;18.05
54455;BME280;40364;52.270;10.546;2023-06-04T09:51:06;101219.63;;;29.29;18.53
54455;BME280;40364;52.270;10.546;2023-06-04T09:53:33;101212.09;;;28.19;19.61
54455;BME280;40364;52.270;10.546;2023-06-04T09:56:05;101219.44;;;28.36;19.35
54455;BME280;40364;52.270;10.546;2023-06-04T09:58:33;101217.69;;;28.10;19.37
54455;BME280;40364;52.270;10.546;2023-06-04T10:01:01;101215.91;;;30.86;17.43
54455;BME280;40364;52.270;10.546;2023-06-04T10:03:30;101212.81;;;30.59;17.56
54455;BME280;40364;52.270;10.546;2023-06-04T10:05:58;101213.38;;;31.81;17.47
54455;BME280;40364;52.270;10.546;2023-06-04T10:08:27;101230.25;;;32.19;16.72
54455;BME280;40364;52.270;10.546;2023-06-04T10:10:55;101219.75;;;32.53;16.58
54455;BME280;40364;52.270;10.546;2023-06-04T10:13:26;101217.38;;;31.74;16.70
54455;BME280;40364;52.270;10.546;2023-06-04T10:15:54;101223.44;;;30.71;16.47
54455;BME280;40364;52.270;10.546;2023-06-04T10:18:23;101220.19;;;31.34;16.92
54455;BME280;40364;52.270;10.546;2023-06-04T10:20:52;101213.28;;;32.12;16.95
54455;BME280;40364;52.270;10.546;2023-06-04T10:23:19;101212.69;;;32.54;16.10
54455;BME280;40364;52.270;10.546;2023-06-04T10:25:48;101212.97;;;30.77;17.74
54455;BME280;40364;52.270;10.546;2023-06-04T10:28:15;101216.13;;;31.23;18.14
54455;BME280;40364;52.270;10.546;2023-06-04T10:30:48;101220.28;;;31.00;19.04
54455;BME280;40364;52.270;10.546;2023-06-04T10:33:17;101219.91;;;30.67;18.27
54455;BME280;40364;52.270;10.546;2023-06-04T10:35:49;101208.13;;;30.96;17.73
54455;BME280;40364;52.270;10.546;2023-06-04T10:38:16;101212.38;;;31.35;17.72
54455;BME280;40364;52.270;10.546;2023-06-04T10:40:44;101212.19;;;30.29;18.15
54455;BME280;40364;52.270;10.546;2023-06-04T10:43:11;101218.66;;;31.42;18.07
54455;BME280;40364;52.270;10.546;2023-06-04T10:45:39;101220.91;;;31.47;17.88
54455;BME280;40364;52.270;10.546;2023-06-04T10:48:08;101218.16;;;32.52;16.89
54455;BME280;40364;52.270;10.546;2023-06-04T10:50:48;101221.69;;;32.37;16.62
54455;BME280;40364;52.270;10.546;2023-06-04T10:53:16;101219.84;;;30.45;17.50
54455;BME280;40364;52.270;10.546;2023-06-04T10:55:44;101210.41;;;30.23;18.10
54455;BME280;40364;52.270;10.546;2023-06-04T10:58:10;101215.44;;;30.88;17.44
54455;BME280;40364;52.270;10.546;2023-06-04T11:00:38;101214.53;;;31.22;17.42
54455;BME280;40364;52.270;10.546;2023-06-04T11:03:07;101217.88;;;30.98;17.37
54455;BME280;40364;52.270;10.546;2023-06-04T11:05:34;101217.19;;;33.00;16.07
54455;BME280;40364;52.270;10.546;2023-06-04T11:08:02;101208.00;;;34.19;15.57
54455;BME280;40364;52.270;10.546;2023-06-04T11:10:31;101204.81;;;33.60;15.45
54455;BME280;40364;52.270;10.546;2023-06-04T11:12:59;101202.22;;;34.58;15.18
54455;BME280;40364;52.270;10.546;2023-06-04T11:15:25;101207.50;;;34.83;15.25
54455;BME280;40364;52.270;10.546;2023-06-04T11:17:53;101208.22;;;35.37;14.70
54455;BME280;40364;52.270;10.546;2023-06-04T11:20:23;101206.41;;;35.89;13.71
54455;BME280;40364;52.270;10.546;2023-06-04T11:22:51;101201.41;;;35.25;14.14
54455;BME280;40364;52.270;10.546;2023-06-04T11:25:18;101210.50;;;34.89;14.58
54455;BME280;40364;52.270;10.546;2023-06-04T11:27:45;101202.94;;;35.35;14.80
54455;BME280;40364;52.270;10.546;2023-06-04T11:30:12;101203.91;;;36.58;13.83
54455;BME280;40364;52.270;10.546;2023-06-04T11:32:40;101210.66;;;35.73;14.52
54455;BME280;40364;52.270;10.546;2023-06-04T11:35:08;101199.09;;;36.55;13.64
54455;BME280;40364;52.270;10.546;2023-06-04T11:37:38;101213.31;;;35.92;13.76
54455;BME280;40364;52.270;10.546;2023-06-04T11:40:15;101201.47;;;36.30;14.07
54455;BME280;40364;52.270;10.546;2023-06-04T11:42:43;101195.41;;;37.26;13.22
54455;BME280;40364;52.270;10.546;2023-06-04T11:45:11;101207.66;;;37.41;12.51
54455;BME280;40364;52.270;10.546;2023-06-04T11:47:38;101199.63;;;37.31;13.00
54455;BME280;40364;52.270;10.546;2023-06-04T11:50:07;101188.97;;;37.48;12.45
54455;BME280;40364;52.270;10.546;2023-06-04T11:52:33;101182.78;;;36.57;13.48
54455;BME280;40364;52.270;10.546;2023-06-04T11:55:02;101191.47;;;38.09;13.22
54455;BME280;40364;52.270;10.546;2023-06-04T11:57:29;101205.81;;;38.18;13.10
54455;BME280;40364;52.270;10.546;2023-06-04T11:59:56;101196.56;;;39.01;12.68
54455;BME280;40364;52.270;10.546;2023-06-04T12:02:23;101191.81;;;39.65;12.50
54455;BME280;40364;52.270;10.546;2023-06-04T12:04:49;101178.53;;;38.97;11.56
54455;BME280;40364;52.270;10.546;2023-06-04T12:07:19;101193.22;;;40.33;11.77
54455;BME280;40364;52.270;10.546;2023-06-04T12:09:49;101208.38;;;40.10;11.31
54455;BME280;40364;52.270;10.546;2023-06-04T12:12:21;101193.59;;;40.60;11.01
54455;BME280;40364;52.270;10.546;2023-06-04T12:14:56;101204.19;;;39.99;10.99
54455;BME280;40364;52.270;10.546;2023-06-04T12:22:15;101190.28;;;38.38;11.67
54455;BME280;40364;52.270;10.546;2023-06-04T12:24:49;101195.59;;;40.29;10.74
54455;BME280;40364;52.270;10.546;2023-06-04T12:27:20;101188.88;;;39.21;10.73
54455;BME280;40364;52.270;10.546;2023-06-04T12:29:55;101184.94;;;38.25;11.57
54455;BME280;40364;52.270;10.546;2023-06-04T12:32:21;101180.88;;;39.77;11.55
54455;BME280;40364;52.270;10.546;2023-06-04T12:34:48;101179.56;;;39.95;10.87
54455;BME280;40364;52.270;10.546;2023-06-04T12:37:15;101181.69;;;38.71;11.47
54455;BME280;40364;52.270;10.546;2023-06-04T12:39:42;101180.94;;;40.46;10.77
54455;BME280;40364;52.270;10.546;2023-06-04T12:42:09;101198.31;;;41.45;9.78
54455;BME280;40364;52.270;10.546;2023-06-04T12:44:38;101189.78;;;42.20;9.57
54455;BME280;40364;52.270;10.546;2023-06-04T12:47:05;101188.50;;;42.96;9.38
54455;BME280;40364;52.270;10.546;2023-06-04T12:49:32;101184.19;;;41.98;9.90
54455;BME280;40364;52.270;10.546;2023-06-04T12:51:59;101184.53;;;41.40;10.79